Time;durP1;ratioP1;P1;durP2;ratioP2;P2;SDS_P1;SDS_P2;PMS_P1;PMS_P2;Temp;Humidity;BMP_temperature;BMP_pressure;BME280_temperature;BME280_humidity;BME280_pressure;Samples;Min_cycle;Max_cycle;Signal;HPM_P1;HPM_P2
2022/09/27 00:01:11;;;;;;;3.38;0.95;;;10.40;99.90;;;;;;4853874;29;20484;-72
2022/09/27 00:03:37;;;;;;;7.00;1.00;;;10.40;99.90;;;;;;4866288;29;20476;-72
2022/09/27 00:06:06;;;;;;;6.80;1.00;;;10.40;99.90;;;;;;4862956;29;20053;-72
2022/09/27 00:08:34;;;;;;;6.45;1.20;;;10.50;99.90;;;;;;4865406;29;20091;-72
2022/09/27 00:11:32;;;;;;;7.32;0.95;;;10.50;99.90;;;;;;4852823;29;20053;-72
2022/09/27 00:13:59;;;;;;;7.60;1.30;;;10.50;99.90;;;;;;4870215;29;20168;-72
2022/09/27 00:16:27;;;;;;;10.85;1.25;;;10.50;99.90;;;;;;4868618;29;20052;-72
2022/09/27 00:18:59;;;;;;;4.30;0.90;;;10.50;99.90;;;;;;4866148;29;20155;-72
2022/09/27 00:21:25;;;;;;;9.32;1.60;;;10.50;99.90;;;;;;4865540;29;20064;-72
2022/09/27 00:23:50;;;;;;;4.18;0.93;;;10.50;99.90;;;;;;4863501;29;20056;-72
2022/09/27 00:26:16;;;;;;;4.82;0.93;;;10.50;99.90;;;;;;4865688;29;20172;-72
2022/09/27 00:28:42;;;;;;;6.20;1.10;;;10.50;99.90;;;;;;4835831;29;20111;-72
2022/09/27 00:31:28;;;;;;;7.25;1.25;;;10.50;99.90;;;;;;4868191;29;20152;-72
2022/09/27 00:33:55;;;;;;;4.10;1.13;;;10.50;99.90;;;;;;4866026;29;20041;-72
2022/09/27 00:36:22;;;;;;;5.22;1.00;;;10.50;99.90;;;;;;4864055;29;20053;-72
2022/09/27 00:38:49;;;;;;;6.15;0.90;;;10.50;99.90;;;;;;4864997;29;20508;-72
2022/09/27 00:41:23;;;;;;;3.55;0.82;;;10.50;99.90;;;;;;4850983;29;20484;-72
2022/09/27 00:43:58;;;;;;;4.80;0.85;;;10.50;99.90;;;;;;4866272;29;20052;-72
2022/09/27 00:46:43;;;;;;;5.68;0.90;;;10.50;99.90;;;;;;4869196;29;20132;-72
2022/09/27 00:49:37;;;;;;;6.95;0.80;;;10.40;99.90;;;;;;4864382;29;20171;-72
2022/09/27 00:52:44;;;;;;;6.18;1.20;;;10.40;99.90;;;;;;4857731;29;20564;-73
2022/09/27 00:55:19;;;;;;;6.70;0.90;;;10.30;99.90;;;;;;4865374;29;20091;-72
2022/09/27 00:57:46;;;;;;;4.45;1.17;;;10.30;99.90;;;;;;4866492;29;20139;-72
2022/09/27 01:00:14;;;;;;;3.35;0.95;;;10.30;99.90;;;;;;4865238;29;20056;-72
2022/09/27 01:02:51;;;;;;;3.55;0.88;;;10.30;99.90;;;;;;4880439;29;20139;-72
2022/09/27 01:05:20;;;;;;;2.90;0.90;;;10.20;99.90;;;;;;4851340;29;20059;-72
2022/09/27 01:07:46;;;;;;;2.53;0.80;;;10.20;99.90;;;;;;4866903;29;20148;-72
2022/09/27 01:10:13;;;;;;;3.88;1.17;;;10.20;99.90;;;;;;4870846;29;20120;-72
2022/09/27 01:13:19;;;;;;;4.20;0.90;;;10.20;99.90;;;;;;4867554;29;20049;-72
2022/09/27 01:15:58;;;;;;;5.45;1.00;;;10.20;99.90;;;;;;4866539;29;20052;-72
2022/09/27 01:18:57;;;;;;;3.70;0.90;;;10.10;99.90;;;;;;4867682;29;20063;-72
2022/09/27 01:21:34;;;;;;;5.88;0.77;;;10.10;99.90;;;;;;4865196;29;21214;-72
2022/09/27 01:24:30;;;;;;;8.25;1.08;;;10.20;99.90;;;;;;4870977;29;20041;-72
2022/09/27 01:27:17;;;;;;;6.57;1.10;;;10.20;99.90;;;;;;4880812;29;20135;-72
2022/09/27 01:29:51;;;;;;;4.90;1.10;;;10.20;99.90;;;;;;4870895;29;20850;-72
2022/09/27 01:32:26;;;;;;;4.22;0.90;;;10.20;99.90;;;;;;4841042;29;20419;-72
2022/09/27 01:35:16;;;;;;;9.18;1.30;;;10.20;99.90;;;;;;4864266;29;20053;-72
2022/09/27 01:38:04;;;;;;;6.18;0.80;;;10.20;99.90;;;;;;4880065;29;20108;-72
2022/09/27 01:40:58;;;;;;;4.45;1.00;;;10.30;99.90;;;;;;4865233;29;20048;-72
2022/09/27 01:43:31;;;;;;;8.32;1.20;;;10.30;99.90;;;;;;4878887;29;20518;-73
2022/09/27 01:46:15;;;;;;;6.20;0.85;;;10.20;99.90;;;;;;4878779;29;20057;-73
2022/09/27 01:48:46;;;;;;;3.65;1.00;;;10.30;99.90;;;;;;4871146;29;20056;-73
2022/09/27 01:51:15;;;;;;;2.25;0.70;;;10.20;99.90;;;;;;4866487;29;20052;-73
2022/09/27 01:53:46;;;;;;;0.55;0.40;;;10.20;99.90;;;;;;4863440;29;20048;-73
2022/09/27 01:56:44;;;;;;;5.10;0.60;;;10.20;99.90;;;;;;4866963;29;20041;-73
2022/09/27 01:59:28;;;;;;;5.10;0.75;;;10.20;99.90;;;;;;4857187;29;20527;-72
2022/09/27 02:01:58;;;;;;;1.83;0.60;;;10.20;99.90;;;;;;4880561;29;24772;-72
2022/09/27 02:04:29;;;;;;;2.08;0.77;;;10.10;99.90;;;;;;4867940;29;20040;-73
2022/09/27 02:07:18;;;;;;;5.20;0.80;;;10.10;99.90;;;;;;4866284;29;20053;-73
2022/09/27 02:09:52;;;;;;;6.30;0.95;;;10.10;99.90;;;;;;4872895;29;20416;-73
2022/09/27 02:12:32;;;;;;;6.53;1.17;;;10.10;99.90;;;;;;4867112;29;20223;-73
2022/09/27 02:15:09;;;;;;;5.05;1.30;;;10.10;99.90;;;;;;4868506;29;20059;-73
2022/09/27 02:17:53;;;;;;;3.70;0.80;;;10.10;99.90;;;;;;4866170;29;20067;-73
2022/09/27 02:20:30;;;;;;;2.88;0.70;;;10.10;99.90;;;;;;4870809;29;20056;-73
2022/09/27 02:23:25;;;;;;;1.67;0.60;;;10.00;99.90;;;;;;4873646;29;20437;-73
2022/09/27 02:25:59;;;;;;;3.33;0.45;;;10.00;99.90;;;;;;4882907;29;20706;-73
2022/09/27 02:28:36;;;;;;;1.85;0.57;;;9.90;99.90;;;;;;4886445;29;20856;-73
2022/09/27 02:31:02;;;;;;;0.57;0.32;;;9.90;99.90;;;;;;4868769;29;20091;-73
2022/09/27 02:33:49;;;;;;;6.22;0.75;;;9.90;99.90;;;;;;4870666;29;20044;-73
2022/09/27 02:36:16;;;;;;;3.95;0.55;;;9.90;99.90;;;;;;4883681;29;20557;-73
2022/09/27 02:38:43;;;;;;;3.55;0.80;;;9.90;99.90;;;;;;4867089;29;20044;-73
2022/09/27 02:41:17;;;;;;;6.10;0.98;;;9.90;99.90;;;;;;4878886;29;20060;-73
2022/09/27 02:43:54;;;;;;;4.88;0.88;;;9.90;99.90;;;;;;4861100;29;20082;-73
2022/09/27 02:46:30;;;;;;;4.72;0.70;;;9.90;99.90;;;;;;4891001;29;20774;-73
2022/09/27 02:49:09;;;;;;;7.25;0.80;;;9.90;99.90;;;;;;4878697;29;20055;-73
2022/09/27 02:51:48;;;;;;;3.45;0.88;;;9.90;99.90;;;;;;4871129;29;20483;-72
2022/09/27 02:54:35;;;;;;;7.43;0.93;;;9.90;99.90;;;;;;4865699;29;20116;-72
2022/09/27 02:57:20;;;;;;;8.75;1.20;;;9.90;99.90;;;;;;4873879;29;20060;-72
2022/09/27 03:00:03;;;;;;;4.10;0.90;;;9.90;99.90;;;;;;4884922;29;21139;-72
2022/09/27 03:02:44;;;;;;;9.75;1.33;;;9.90;99.90;;;;;;4868248;29;20064;-72
2022/09/27 03:05:19;;;;;;;4.75;1.00;;;9.90;99.90;;;;;;4871117;29;20059;-73
2022/09/27 03:07:45;;;;;;;4.65;0.75;;;9.80;99.90;;;;;;4867115;29;20459;-73
2022/09/27 03:10:20;;;;;;;6.28;1.13;;;9.80;99.90;;;;;;4866457;29;21155;-73
2022/09/27 03:12:46;;;;;;;2.03;0.80;;;9.80;99.90;;;;;;4858422;29;20523;-72
2022/09/27 03:15:12;;;;;;;7.50;1.05;;;9.80;99.90;;;;;;4865821;29;20133;-72
2022/09/27 03:17:39;;;;;;;3.22;0.77;;;9.80;99.90;;;;;;4852912;29;20057;-72
2022/09/27 03:20:05;;;;;;;3.42;1.00;;;9.80;99.90;;;;;;4872161;29;20049;-72
2022/09/27 03:22:31;;;;;;;4.65;1.08;;;9.70;99.90;;;;;;4872990;29;20534;-72
2022/09/27 03:24:57;;;;;;;4.10;0.90;;;9.70;99.90;;;;;;4867403;29;20045;-72
2022/09/27 03:27:23;;;;;;;3.05;0.95;;;9.70;99.90;;;;;;4853211;29;20986;-72
2022/09/27 03:29:49;;;;;;;6.07;0.90;;;9.70;99.90;;;;;;4880558;29;20120;-73
2022/09/27 03:32:15;;;;;;;3.30;0.70;;;9.70;99.90;;;;;;4852726;29;20114;-73
2022/09/27 03:34:41;;;;;;;5.18;0.90;;;9.70;99.90;;;;;;4832082;29;21544;-72
2022/09/27 03:37:07;;;;;;;2.92;0.85;;;9.70;99.90;;;;;;4881636;29;20637;-72
2022/09/27 03:39:34;;;;;;;1.83;0.70;;;9.60;99.90;;;;;;4882578;29;20053;-72
2022/09/27 03:42:00;;;;;;;4.65;0.93;;;9.60;99.90;;;;;;4852062;29;20064;-72
2022/09/27 03:44:25;;;;;;;5.25;0.90;;;9.60;99.90;;;;;;4855321;29;20056;-72
2022/09/27 03:46:51;;;;;;;4.72;1.00;;;9.60;99.90;;;;;;4872730;29;20059;-72
2022/09/27 03:49:17;;;;;;;4.57;0.90;;;9.60;99.90;;;;;;4870114;29;20059;-72
2022/09/27 03:51:43;;;;;;;5.82;0.93;;;9.60;99.90;;;;;;4887601;29;20045;-73
2022/09/27 03:54:09;;;;;;;3.53;0.80;;;9.60;99.90;;;;;;4854753;29;20057;-72
2022/09/27 03:56:35;;;;;;;6.10;1.20;;;9.60;99.90;;;;;;4855744;29;20043;-72
2022/09/27 03:59:01;;;;;;;4.97;1.23;;;9.60;99.90;;;;;;4885659;29;20052;-73
2022/09/27 04:01:27;;;;;;;8.43;1.20;;;9.60;99.90;;;;;;4867437;29;20115;-72
2022/09/27 04:03:53;;;;;;;7.07;1.40;;;9.60;99.90;;;;;;4868444;29;20060;-73
2022/09/27 04:06:19;;;;;;;9.73;1.10;;;9.60;99.90;;;;;;4842488;29;20516;-73
2022/09/27 04:08:46;;;;;;;8.60;1.20;;;9.60;99.90;;;;;;4871051;29;20057;-72
2022/09/27 04:11:14;;;;;;;7.32;1.17;;;9.60;99.90;;;;;;4853206;29;20141;-73
2022/09/27 04:13:40;;;;;;;6.60;1.23;;;9.60;99.90;;;;;;4867990;29;20487;-73
2022/09/27 04:16:06;;;;;;;4.95;1.08;;;9.60;99.90;;;;;;4858075;29;20834;-73
2022/09/27 04:18:33;;;;;;;8.02;1.30;;;9.60;99.90;;;;;;4867999;29;20057;-73
2022/09/27 04:20:58;;;;;;;5.20;0.95;;;9.60;99.90;;;;;;4843288;29;20063;-73
2022/09/27 04:23:24;;;;;;;8.88;0.98;;;9.60;99.90;;;;;;4851257;29;20052;-73
2022/09/27 04:25:50;;;;;;;7.32;1.15;;;9.60;99.90;;;;;;4883265;29;20111;-73
2022/09/27 04:28:16;;;;;;;8.38;1.08;;;9.60;99.90;;;;;;4867412;29;20092;-73
2022/09/27 04:30:42;;;;;;;5.82;1.05;;;9.60;99.90;;;;;;4870178;29;20048;-73
2022/09/27 04:33:07;;;;;;;7.57;1.48;;;9.60;99.90;;;;;;4883224;29;20059;-72
2022/09/27 04:38:21;;;;;;;5.05;0.80;;;9.60;99.90;;;;;;4868160;29;20084;-71
2022/09/27 04:40:47;;;;;;;4.15;0.85;;;9.60;99.90;;;;;;4852018;29;20052;-72
2022/09/27 04:43:13;;;;;;;3.35;1.65;;;9.60;99.90;;;;;;4854334;29;20186;-71
2022/09/27 04:45:39;;;;;;;6.45;1.23;;;9.60;99.90;;;;;;4868088;29;20491;-71
2022/09/27 04:48:05;;;;;;;4.50;0.93;;;9.60;99.90;;;;;;4854307;29;20128;-71
2022/09/27 04:50:31;;;;;;;8.23;1.20;;;9.60;99.90;;;;;;4871884;29;20082;-71
2022/09/27 04:52:57;;;;;;;3.85;0.88;;;9.60;99.90;;;;;;4871569;29;20047;-71
2022/09/27 04:55:23;;;;;;;8.52;1.10;;;9.60;99.90;;;;;;4869755;29;20595;-71
2022/09/27 04:57:49;;;;;;;6.88;1.00;;;9.60;99.90;;;;;;4869112;29;20053;-71
2022/09/27 05:00:16;;;;;;;4.68;0.80;;;9.60;99.90;;;;;;4849260;29;20049;-71
2022/09/27 05:02:43;;;;;;;6.22;1.00;;;9.60;99.90;;;;;;4867009;29;20552;-70
2022/09/27 05:05:09;;;;;;;4.55;0.93;;;9.60;99.90;;;;;;4854647;29;20164;-71
2022/09/27 05:07:37;;;;;;;5.00;0.82;;;9.60;99.90;;;;;;4852684;29;20087;-71
2022/09/27 05:10:03;;;;;;;6.85;0.98;;;9.60;99.90;;;;;;4867181;29;20143;-71
2022/09/27 05:12:29;;;;;;;6.78;1.08;;;9.60;99.90;;;;;;4870393;29;20491;-71
2022/09/27 05:14:55;;;;;;;1.55;0.80;;;9.60;99.90;;;;;;4851892;29;20083;-71
2022/09/27 05:17:22;;;;;;;4.03;0.90;;;9.60;99.90;;;;;;4866345;29;20596;-71
2022/09/27 05:19:49;;;;;;;8.98;1.67;;;9.60;99.90;;;;;;4875730;29;20090;-71
2022/09/27 05:22:15;;;;;;;4.15;1.10;;;9.60;99.90;;;;;;4857851;29;20056;-71
2022/09/27 05:24:41;;;;;;;4.97;0.98;;;9.60;99.90;;;;;;4834502;29;20059;-71
2022/09/27 05:27:10;;;;;;;4.45;1.13;;;9.60;99.90;;;;;;4858871;29;20057;-73
2022/09/27 05:29:36;;;;;;;5.57;1.40;;;9.60;99.90;;;;;;4863370;29;20060;-73
2022/09/27 05:32:02;;;;;;;2.60;0.82;;;9.60;99.90;;;;;;4866386;29;20682;-73
2022/09/27 05:34:30;;;;;;;3.33;1.00;;;9.50;99.90;;;;;;4845140;29;20048;-73
2022/09/27 05:36:56;;;;;;;9.35;1.15;;;9.50;99.90;;;;;;4872260;29;20183;-73
2022/09/27 05:39:21;;;;;;;6.30;1.10;;;9.50;99.90;;;;;;4868788;29;20045;-73
2022/09/27 05:41:49;;;;;;;4.22;0.80;;;9.50;99.90;;;;;;4858699;29;20510;-73
2022/09/27 05:44:16;;;;;;;3.58;0.98;;;9.50;99.90;;;;;;4876775;29;20707;-73
2022/09/27 05:46:41;;;;;;;4.15;0.95;;;9.50;99.90;;;;;;4863710;29;20056;-73
2022/09/27 05:49:07;;;;;;;3.38;0.90;;;9.60;99.90;;;;;;4863783;29;20071;-73
2022/09/27 05:51:33;;;;;;;4.55;0.90;;;9.60;99.90;;;;;;4875669;29;20049;-73
2022/09/27 05:53:59;;;;;;;3.65;1.02;;;9.50;99.90;;;;;;4862463;29;20059;-73
2022/09/27 05:56:25;;;;;;;5.57;1.00;;;9.50;99.90;;;;;;4852821;29;20057;-73
2022/09/27 05:58:51;;;;;;;6.70;1.10;;;9.60;99.90;;;;;;4850437;29;20053;-73
2022/09/27 06:01:17;;;;;;;5.15;1.08;;;9.50;99.90;;;;;;4843862;29;20057;-70
2022/09/27 06:03:46;;;;;;;3.97;1.10;;;9.60;99.90;;;;;;4864967;29;20056;-70
2022/09/27 06:06:13;;;;;;;5.65;1.02;;;9.60;99.90;;;;;;4864598;29;20071;-68
2022/09/27 06:08:39;;;;;;;4.35;1.10;;;9.60;99.90;;;;;;4863173;29;20415;-68
2022/09/27 06:11:12;;;;;;;5.25;1.02;;;9.60;99.90;;;;;;4868062;29;20056;-65
2022/09/27 06:13:39;;;;;;;8.38;1.42;;;9.60;99.90;;;;;;4882807;29;20641;-61
2022/09/27 06:16:06;;;;;;;7.25;1.40;;;9.60;99.90;;;;;;4858157;29;20064;-62
2022/09/27 06:18:32;;;;;;;5.45;1.40;;;9.70;99.90;;;;;;4868887;29;20158;-62
2022/09/27 06:20:59;;;;;;;9.45;1.60;;;9.70;99.90;;;;;;4866658;29;20538;-61
2022/09/27 06:23:26;;;;;;;3.78;1.15;;;9.70;99.90;;;;;;4860254;29;20489;-62
2022/09/27 06:25:53;;;;;;;3.42;1.10;;;9.70;99.90;;;;;;4876197;29;20044;-64
2022/09/27 06:28:19;;;;;;;4.18;1.00;;;9.70;99.90;;;;;;4868766;29;20965;-63
2022/09/27 06:30:47;;;;;;;5.40;1.00;;;9.70;99.90;;;;;;4863450;29;20045;-62
2022/09/27 06:33:18;;;;;;;5.20;1.13;;;9.70;99.90;;;;;;4868294;29;20058;-61
2022/09/27 06:35:45;;;;;;;5.72;0.90;;;9.80;99.90;;;;;;4883651;29;20155;-61
2022/09/27 06:38:16;;;;;;;3.78;0.93;;;9.80;99.90;;;;;;4871911;29;20112;-62
2022/09/27 06:40:46;;;;;;;6.30;1.30;;;9.80;99.90;;;;;;4871576;29;20053;-61
2022/09/27 06:43:14;;;;;;;4.30;1.10;;;9.80;99.90;;;;;;4876895;29;20079;-63
2022/09/27 06:45:41;;;;;;;3.22;1.00;;;9.80;99.90;;;;;;4867923;29;20060;-63
2022/09/27 06:48:11;;;;;;;5.20;1.05;;;9.80;99.90;;;;;;4862429;29;20056;-61
2022/09/27 06:50:39;;;;;;;5.60;1.23;;;9.80;99.90;;;;;;4866151;29;20063;-63
2022/09/27 06:53:06;;;;;;;2.58;1.20;;;9.80;99.90;;;;;;4871474;29;20080;-63
2022/09/27 06:55:32;;;;;;;3.50;1.10;;;9.80;99.90;;;;;;4868572;29;20053;-62
2022/09/27 07:00:48;;;;;;;4.32;1.15;;;9.80;99.90;;;;;;4867775;29;20069;-64
2022/09/27 07:03:14;;;;;;;4.97;1.00;;;9.90;99.90;;;;;;4852041;29;20056;-62
2022/09/27 07:05:41;;;;;;;3.35;0.90;;;9.90;99.90;;;;;;4864274;29;20053;-62
2022/09/27 07:08:10;;;;;;;3.40;1.05;;;9.90;99.90;;;;;;4867015;29;20112;-62
2022/09/27 07:10:38;;;;;;;5.53;1.60;;;9.90;99.90;;;;;;4883922;29;20059;-62
2022/09/27 07:13:09;;;;;;;3.05;1.08;;;10.00;99.90;;;;;;4874125;29;20088;-62
2022/09/27 07:15:39;;;;;;;4.40;1.10;;;10.00;99.90;;;;;;4881935;29;20051;-63
2022/09/27 07:18:07;;;;;;;4.85;1.25;;;10.00;99.90;;;;;;4868227;29;20057;-62
2022/09/27 07:20:36;;;;;;;3.75;1.20;;;10.00;99.90;;;;;;4872685;29;20181;-61
2022/09/27 07:23:04;;;;;;;4.72;0.98;;;10.00;99.90;;;;;;4865711;29;20571;-62
2022/09/27 07:25:31;;;;;;;6.03;1.42;;;10.10;99.90;;;;;;4865778;29;20068;-64
2022/09/27 07:28:02;;;;;;;7.18;1.25;;;10.10;99.90;;;;;;4867414;29;20052;-64
2022/09/27 07:30:28;;;;;;;5.05;1.20;;;10.20;99.90;;;;;;4863996;29;20058;-62
2022/09/27 07:33:03;;;;;;;4.53;1.00;;;10.30;99.90;;;;;;4865432;29;20053;-61
2022/09/27 07:35:29;;;;;;;4.18;1.08;;;10.50;99.90;;;;;;4860799;29;20056;-63
2022/09/27 07:37:56;;;;;;;5.88;1.25;;;10.60;99.90;;;;;;4862017;29;20060;-62
2022/09/27 07:40:22;;;;;;;5.95;1.42;;;10.70;99.90;;;;;;4867446;29;20489;-62
2022/09/27 07:42:54;;;;;;;5.35;1.00;;;10.80;99.90;;;;;;4884484;29;20052;-63
2022/09/27 07:45:21;;;;;;;2.72;0.70;;;10.80;99.90;;;;;;4871827;29;20053;-64
2022/09/27 07:47:47;;;;;;;3.08;0.70;;;10.80;99.90;;;;;;4883292;29;20159;-61
2022/09/27 07:50:13;;;;;;;3.13;0.63;;;10.80;99.90;;;;;;4867017;29;20048;-63
2022/09/27 07:52:40;;;;;;;2.15;0.60;;;10.80;99.90;;;;;;4870183;29;20101;-61
2022/09/27 07:55:08;;;;;;;2.35;1.08;;;10.70;99.90;;;;;;4868171;29;20185;-61
2022/09/27 07:57:33;;;;;;;2.65;0.80;;;10.60;99.90;;;;;;4873341;29;20082;-63
2022/09/27 07:59:59;;;;;;;4.45;0.80;;;10.60;99.90;;;;;;4868746;29;20507;-62
2022/09/27 08:02:25;;;;;;;3.47;0.80;;;10.50;99.90;;;;;;4867124;29;20067;-62
2022/09/27 08:04:52;;;;;;;1.67;0.90;;;10.50;99.90;;;;;;4868124;29;20056;-62
2022/09/27 08:07:17;;;;;;;2.45;0.70;;;10.40;99.90;;;;;;4881920;29;20084;-63
2022/09/27 08:09:43;;;;;;;2.63;0.80;;;10.40;99.90;;;;;;4854309;29;20154;-61
2022/09/27 08:12:09;;;;;;;2.88;0.80;;;10.40;99.90;;;;;;4882387;29;21089;-62
2022/09/27 08:14:35;;;;;;;1.55;0.70;;;10.40;99.90;;;;;;4872194;29;20567;-61
2022/09/27 08:17:01;;;;;;;3.58;0.75;;;10.40;99.90;;;;;;4874691;29;20143;-62
2022/09/27 08:19:27;;;;;;;2.42;0.60;;;10.50;99.90;;;;;;4867977;29;20694;-64
2022/09/27 08:21:55;;;;;;;2.38;0.73;;;10.50;99.90;;;;;;4853304;29;20232;-61
2022/09/27 08:24:21;;;;;;;2.25;0.70;;;10.60;99.90;;;;;;4868178;29;20150;-61
2022/09/27 08:26:47;;;;;;;3.53;0.60;;;10.70;99.90;;;;;;4872551;29;20136;-63
2022/09/27 08:29:13;;;;;;;1.45;0.60;;;10.80;99.90;;;;;;4871239;29;20919;-62
2022/09/27 08:31:39;;;;;;;2.78;0.60;;;10.90;99.90;;;;;;4882414;29;20045;-62
2022/09/27 08:34:04;;;;;;;2.33;0.60;;;10.90;99.90;;;;;;4866591;29;20045;-61
2022/09/27 08:36:34;;;;;;;2.95;0.80;;;11.10;99.90;;;;;;4865156;29;20049;-63
2022/09/27 08:39:00;;;;;;;5.53;0.90;;;11.10;99.90;;;;;;4866415;29;20083;-61
2022/09/27 08:42:03;;;;;;;8.13;0.90;;;11.20;99.90;;;;;;4850092;29;20061;-63
2022/09/27 08:44:47;;;;;;;3.67;0.80;;;11.20;99.90;;;;;;4870567;29;20170;-64
2022/09/27 08:47:30;;;;;;;4.20;0.98;;;11.30;99.90;;;;;;4880808;29;20044;-62
2022/09/27 08:50:15;;;;;;;3.95;0.93;;;11.30;99.90;;;;;;4876431;29;20055;-61
2022/09/27 08:52:47;;;;;;;3.78;0.95;;;11.30;99.90;;;;;;4890123;29;20072;-61
2022/09/27 08:55:49;;;;;;;3.83;1.05;;;11.30;99.90;;;;;;4877108;29;20044;-64
2022/09/27 08:58:50;;;;;;;2.50;0.60;;;11.30;99.90;;;;;;4840346;29;20159;-64
2022/09/27 09:01:17;;;;;;;3.35;0.80;;;11.30;99.90;;;;;;4868528;29;20171;-62
2022/09/27 09:03:52;;;;;;;3.38;0.75;;;11.40;99.90;;;;;;4865251;29;20049;-61
2022/09/27 09:06:25;;;;;;;3.80;1.00;;;11.40;99.90;;;;;;4868410;29;20052;-62
2022/09/27 09:09:18;;;;;;;2.22;0.88;;;11.40;99.90;;;;;;4869522;29;20053;-61
2022/09/27 09:15:14;;;;;;;2.92;0.65;;;11.50;99.90;;;;;;4868308;29;21611;-62
2022/09/27 09:18:01;;;;;;;3.78;0.93;;;11.50;99.90;;;;;;4866812;29;20060;-63
2022/09/27 09:21:05;;;;;;;3.67;0.70;;;11.50;99.90;;;;;;4873217;29;20057;-61
2022/09/27 09:23:56;;;;;;;5.82;1.02;;;11.50;99.90;;;;;;4868114;29;20048;-64
2022/09/27 09:26:30;;;;;;;3.13;0.77;;;11.50;99.90;;;;;;4865072;29;20061;-61
2022/09/27 09:29:26;;;;;;;4.65;0.90;;;11.50;99.90;;;;;;4876191;29;20250;-63
2022/09/27 09:32:11;;;;;;;2.78;0.82;;;11.50;99.90;;;;;;4872894;29;20457;-62
2022/09/27 09:34:42;;;;;;;1.80;0.60;;;11.50;99.90;;;;;;4861135;29;22041;-62
2022/09/27 09:37:17;;;;;;;4.68;0.70;;;11.40;99.90;;;;;;4869756;29;20044;-63
2022/09/27 09:40:18;;;;;;;1.75;0.52;;;11.30;99.90;;;;;;4870506;29;20052;-62
2022/09/27 09:43:09;;;;;;;1.50;0.70;;;11.30;99.90;;;;;;4856691;29;20428;-62
2022/09/27 09:45:46;;;;;;;0.95;0.50;;;11.30;99.90;;;;;;4871480;29;20045;-63
2022/09/27 09:48:38;;;;;;;3.53;0.65;;;11.30;99.90;;;;;;4876351;29;20802;-62
2022/09/27 09:51:10;;;;;;;2.65;0.60;;;11.20;99.90;;;;;;4859777;29;20056;-62
2022/09/27 09:53:44;;;;;;;1.08;0.60;;;11.20;99.90;;;;;;4871905;29;20147;-64
2022/09/27 09:56:31;;;;;;;1.90;0.63;;;11.20;99.90;;;;;;4873602;29;20086;-62
2022/09/27 09:59:24;;;;;;;2.00;0.73;;;11.20;99.90;;;;;;4871910;29;21673;-63
2022/09/27 10:01:54;;;;;;;2.73;0.63;;;11.20;99.90;;;;;;4855131;29;20116;-62
2022/09/27 10:04:27;;;;;;;2.58;0.70;;;11.20;99.90;;;;;;4871828;29;20063;-61
2022/09/27 10:06:54;;;;;;;;;;;11.20;99.90;;;;;;4886875;29;20124;-62
2022/09/27 10:09:25;;;;;;;1.65;0.60;;;11.30;99.90;;;;;;4870086;29;20530;-62
2022/09/27 10:11:51;;;;;;;1.83;0.40;;;11.30;99.90;;;;;;4886372;29;20059;-63
2022/09/27 10:14:20;;;;;;;0.95;0.50;;;11.40;99.90;;;;;;4883707;29;20080;-62
2022/09/27 10:16:54;;;;;;;0.90;0.50;;;11.40;99.90;;;;;;4874136;29;20456;-62
2022/09/27 10:19:28;;;;;;;2.42;0.60;;;11.50;99.90;;;;;;4871872;29;20071;-61
2022/09/27 10:22:00;;;;;;;3.88;0.60;;;11.60;99.90;;;;;;4854525;29;20059;-63
2022/09/27 10:24:26;;;;;;;2.08;0.80;;;11.60;99.90;;;;;;4888683;29;20052;-63
2022/09/27 10:26:58;;;;;;;2.65;0.60;;;11.70;99.90;;;;;;4866097;29;22929;-63
2022/09/27 10:29:32;;;;;;;5.07;0.95;;;11.80;99.90;;;;;;4868497;29;20052;-64
2022/09/27 10:32:02;;;;;;;2.53;0.68;;;11.80;99.90;;;;;;4880111;29;20036;-62
2022/09/27 10:34:37;;;;;;;1.45;0.43;;;12.00;99.90;;;;;;4870485;29;20057;-63
2022/09/27 10:37:12;;;;;;;2.78;0.50;;;12.10;99.90;;;;;;4866917;29;20052;-64
2022/09/27 10:39:41;;;;;;;2.22;0.73;;;12.40;99.90;;;;;;4867511;29;20105;-61
2022/09/27 10:42:20;;;;;;;1.80;0.52;;;12.60;99.90;;;;;;4880634;29;20056;-63
2022/09/27 10:44:46;;;;;;;1.10;0.43;;;12.60;99.90;;;;;;4864970;29;20048;-63
2022/09/27 10:47:21;;;;;;;1.40;0.43;;;12.60;99.90;;;;;;4875851;29;20076;-61
2022/09/27 10:49:47;;;;;;;7.63;0.80;;;12.50;99.90;;;;;;4867232;29;20049;-61
2022/09/27 10:52:19;;;;;;;1.52;0.43;;;12.40;99.90;;;;;;4870592;29;20083;-63
2022/09/27 10:55:13;;;;;;;0.95;0.38;;;12.20;99.90;;;;;;4866120;29;20041;-63
2022/09/27 10:57:39;;;;;;;2.03;0.40;;;12.20;99.90;;;;;;4884589;29;20083;-62
2022/09/27 11:00:21;;;;;;;0.47;0.30;;;12.10;99.90;;;;;;4882750;29;20552;-64
2022/09/27 11:03:00;;;;;;;0.35;0.20;;;12.00;99.90;;;;;;4873085;29;20171;-63
2022/09/27 11:05:32;;;;;;;2.53;0.55;;;11.80;99.90;;;;;;4871363;29;20064;-63
2022/09/27 11:08:02;;;;;;;1.50;0.40;;;11.70;99.90;;;;;;4870207;29;20052;-63
2022/09/27 11:10:30;;;;;;;2.90;0.50;;;11.60;99.90;;;;;;4872580;29;20135;-61
2022/09/27 11:13:18;;;;;;;0.88;0.40;;;11.50;99.90;;;;;;4872212;29;20049;-61
2022/09/27 11:16:09;;;;;;;2.70;0.60;;;11.50;99.90;;;;;;4865019;29;20060;-64
2022/09/27 11:18:53;;;;;;;2.70;0.52;;;11.40;99.90;;;;;;4867342;29;20052;-64
2022/09/27 11:21:41;;;;;;;2.42;0.60;;;11.40;99.90;;;;;;4864845;29;20059;-67
2022/09/27 11:24:44;;;;;;;0.40;0.38;;;11.50;99.90;;;;;;4867913;29;20064;-67
2022/09/27 11:27:32;;;;;;;2.10;0.65;;;11.40;99.90;;;;;;4868413;29;20083;-68
2022/09/27 11:30:15;;;;;;;1.35;0.50;;;11.50;99.90;;;;;;4865217;29;20132;-67
2022/09/27 11:33:05;;;;;;;1.52;0.55;;;11.50;99.90;;;;;;4870732;29;21444;-67
2022/09/27 11:35:49;;;;;;;2.15;0.65;;;11.60;99.90;;;;;;4874678;29;20059;-67
2022/09/27 11:38:24;;;;;;;0.80;0.50;;;11.70;99.90;;;;;;4867466;29;20502;-67
2022/09/27 11:41:29;;;;;;;0.95;0.40;;;12.00;99.90;;;;;;4865713;29;20056;-67
2022/09/27 11:44:16;;;;;;;2.47;0.60;;;12.30;99.90;;;;;;4871902;29;20082;-67
2022/09/27 11:47:08;;;;;;;3.40;0.70;;;12.60;99.90;;;;;;4866121;29;20527;-67
2022/09/27 11:50:08;;;;;;;1.45;0.30;;;12.90;99.90;;;;;;4868769;29;20139;-68
2022/09/27 11:52:52;;;;;;;0.75;0.30;;;13.00;99.90;;;;;;4862716;29;20647;-67
2022/09/27 11:55:32;;;;;;;0.20;0.20;;;12.70;99.90;;;;;;4867664;29;20946;-67
2022/09/27 11:58:12;;;;;;;1.58;0.30;;;12.50;99.90;;;;;;4877845;29;20045;-67
2022/09/27 12:01:09;;;;;;;0.32;0.30;;;12.20;99.90;;;;;;4868769;29;20045;-67
2022/09/27 12:04:32;;;;;;;0.25;0.25;;;12.10;99.90;;;;;;4869500;29;20088;-67
2022/09/27 12:07:30;;;;;;;0.90;0.30;;;12.10;99.90;;;;;;4832677;29;21231;-67
2022/09/27 12:10:02;;;;;;;0.32;0.28;;;12.20;99.90;;;;;;4829649;29;20114;-68
2022/09/27 12:12:32;;;;;;;0.38;0.30;;;12.40;99.90;;;;;;4859458;29;20099;-69
2022/09/27 12:15:05;;;;;;;0.82;0.40;;;12.50;99.90;;;;;;4874137;29;20598;-69
2022/09/27 12:17:44;;;;;;;0.85;0.40;;;12.60;99.90;;;;;;4874683;29;20067;-68
2022/09/27 12:20:23;;;;;;;3.28;0.50;;;12.60;99.90;;;;;;4871224;29;20108;-69
2022/09/27 12:22:57;;;;;;;2.30;0.50;;;12.60;99.90;;;;;;4855344;29;20056;-69
2022/09/27 12:25:26;;;;;;;2.08;0.52;;;12.60;99.90;;;;;;4865521;29;20404;-69
2022/09/27 12:28:39;;;;;;;3.28;0.60;;;12.60;99.90;;;;;;4867079;29;20159;-68
2022/09/27 12:31:17;;;;;;;2.95;0.55;;;12.70;99.90;;;;;;4816290;29;20142;-69
2022/09/27 12:34:03;;;;;;;0.65;0.40;;;12.70;99.90;;;;;;4870075;29;20053;-67
2022/09/27 12:36:36;;;;;;;3.58;0.77;;;12.80;99.90;;;;;;4868665;29;20124;-69
2022/09/27 12:39:24;;;;;;;4.18;0.63;;;12.80;99.90;;;;;;4857412;29;20056;-68
2022/09/27 12:42:17;;;;;;;2.00;0.52;;;13.00;99.90;;;;;;4860651;29;20151;-68
2022/09/27 12:44:44;;;;;;;2.88;0.85;;;13.00;99.90;;;;;;4850829;29;20504;-69
2022/09/27 12:47:19;;;;;;;3.72;0.73;;;13.10;99.90;;;;;;4865921;29;20056;-68
2022/09/27 12:50:03;;;;;;;3.38;0.80;;;13.10;99.90;;;;;;4874576;29;20148;-68
2022/09/27 12:52:34;;;;;;;4.88;0.82;;;13.20;99.90;;;;;;4860776;29;20055;-69
2022/09/27 12:55:20;;;;;;;3.35;0.77;;;13.20;99.90;;;;;;4876150;29;20053;-69
2022/09/27 12:58:09;;;;;;;2.78;0.60;;;13.20;99.90;;;;;;4882617;29;20091;-69
2022/09/27 13:00:56;;;;;;;1.27;0.60;;;13.20;99.90;;;;;;4868102;29;20052;-69
2022/09/27 13:03:31;;;;;;;1.27;0.30;;;13.20;99.90;;;;;;4876575;29;20138;-68
2022/09/27 13:06:17;;;;;;;0.57;0.32;;;13.30;99.90;;;;;;4878274;29;20064;-68
2022/09/27 13:09:02;;;;;;;1.42;0.40;;;13.30;99.90;;;;;;4854486;29;20038;-68
2022/09/27 13:11:51;;;;;;;2.50;0.57;;;13.30;99.90;;;;;;4866354;29;20064;-68
2022/09/27 13:14:32;;;;;;;2.08;0.45;;;13.30;99.90;;;;;;4871045;29;20556;-68
2022/09/27 13:16:59;;;;;;;1.60;0.38;;;13.30;99.90;;;;;;4879458;29;20056;-66
2022/09/27 13:19:44;;;;;;;1.77;0.45;;;13.30;99.90;;;;;;4854122;29;20103;-67
2022/09/27 13:22:37;;;;;;;1.95;0.50;;;13.40;99.90;;;;;;4864345;29;20502;-66
2022/09/27 13:25:42;;;;;;;3.92;0.70;;;13.40;99.90;;;;;;4863774;29;20061;-65
2022/09/27 13:28:32;;;;;;;2.38;0.60;;;13.30;99.90;;;;;;4852711;29;20128;-66
2022/09/27 13:31:08;;;;;;;1.58;0.50;;;13.20;99.90;;;;;;4869607;29;20056;-65
2022/09/27 13:33:50;;;;;;;0.35;0.30;;;13.00;99.90;;;;;;4873163;29;20057;-64
2022/09/27 13:36:20;;;;;;;1.38;0.40;;;12.80;99.90;;;;;;4864999;29;20128;-66